Time;durP1;ratioP1;P1;durP2;ratioP2;P2;SDS_P1;SDS_P2;PMS_P1;PMS_P2;Temp;Humidity;BMP_temperature;BMP_pressure;BME280_temperature;BME280_humidity;BME280_pressure;Samples;Min_cycle;Max_cycle;Signal;HPM_P1;HPM_P2
2021/01/13 00:02:09;;;;;;;3.70;1.53;;;;;;;;;;5013503;28;20477;-58
2021/01/13 00:04:37;;;;;;;3.47;1.73;;;;;;;;;;5013428;28;20072;-58
2021/01/13 00:07:04;;;;;;;2.73;1.20;;;;;;;;;;5013451;28;20026;-58
2021/01/13 00:09:31;;;;;;;5.20;1.70;;;;;;;;;;5013350;28;20026;-58
2021/01/13 00:11:58;;;;;;;4.13;1.87;;;;;;;;;;5013461;28;20366;-58
2021/01/13 00:14:28;;;;;;;3.60;1.53;;;;;;;;;;5013377;28;20034;-58
2021/01/13 00:17:03;;;;;;;2.87;1.43;;;;;;;;;;5013310;28;20053;-57
2021/01/13 00:19:30;;;;;;;1.93;1.00;;;;;;;;;;5013334;28;20018;-58
2021/01/13 00:21:57;;;;;;;1.90;1.10;;;;;;;;;;5013251;28;20033;-58
2021/01/13 00:24:24;;;;;;;2.60;1.20;;;;;;;;;;5013161;28;20038;-58
2021/01/13 00:26:51;;;;;;;2.77;1.30;;;;;;;;;;5013239;28;20033;-58
2021/01/13 00:29:21;;;;;;;4.20;1.30;;;;;;;;;;5013185;28;20032;-57
2021/01/13 00:31:48;;;;;;;2.63;1.40;;;;;;;;;;5013081;28;20097;-59
2021/01/13 00:34:15;;;;;;;3.03;1.20;;;;;;;;;;5013194;28;20065;-58
2021/01/13 00:36:55;;;;;;;2.87;1.43;;;;;;;;;;5014103;28;20053;-59
2021/01/13 00:39:21;;;;;;;4.03;1.60;;;;;;;;;;5012587;28;20022;-58
2021/01/13 00:41:48;;;;;;;2.17;1.27;;;;;;;;;;5012879;28;20041;-58
2021/01/13 00:44:15;;;;;;;1.83;1.13;;;;;;;;;;5012877;28;20068;-59
2021/01/13 00:46:44;;;;;;;2.67;1.20;;;;;;;;;;5013021;28;20018;-59
2021/01/13 00:49:11;;;;;;;2.53;1.30;;;;;;;;;;5013156;28;20034;-58
2021/01/13 00:51:40;;;;;;;3.83;1.50;;;;;;;;;;5012990;28;20385;-58
2021/01/13 00:54:08;;;;;;;3.57;1.33;;;;;;;;;;5013021;28;20404;-58
2021/01/13 00:56:35;;;;;;;3.33;1.60;;;;;;;;;;5012923;28;20108;-58
2021/01/13 00:59:02;;;;;;;2.23;1.30;;;;;;;;;;5012851;28;20022;-58
2021/01/13 01:01:30;;;;;;;2.57;1.47;;;;;;;;;;5012896;28;20021;-57
2021/01/13 01:03:57;;;;;;;4.27;2.30;;;;;;;;;;5011443;28;20045;-58
2021/01/13 01:06:24;;;;;;;3.23;1.90;;;;;;;;;;5012783;28;20101;-59
2021/01/13 01:08:52;;;;;;;3.10;1.83;;;;;;;;;;5013089;28;20149;-58
2021/01/13 01:11:19;;;;;;;3.57;1.60;;;;;;;;;;5012739;28;20061;-58
2021/01/13 01:13:46;;;;;;;5.07;1.33;;;;;;;;;;5012728;28;20018;-58
2021/01/13 01:16:13;;;;;;;3.47;1.60;;;;;;;;;;5012779;28;20035;-58
2021/01/13 01:18:40;;;;;;;3.27;1.50;;;;;;;;;;5012645;28;20354;-59
2021/01/13 01:21:09;;;;;;;3.43;1.83;;;;;;;;;;5012801;28;20037;-58
2021/01/13 01:23:36;;;;;;;3.00;1.33;;;;;;;;;;5012633;28;20045;-58
2021/01/13 01:26:06;;;;;;;4.83;1.50;;;;;;;;;;5012653;28;20388;-58
2021/01/13 01:28:33;;;;;;;4.97;1.87;;;;;;;;;;5012544;28;20034;-58
2021/01/13 01:31:00;;;;;;;5.63;1.77;;;;;;;;;;5012524;28;20038;-58
2021/01/13 01:33:27;;;;;;;3.07;1.70;;;;;;;;;;5012597;28;20033;-58
2021/01/13 01:35:53;;;;;;;3.00;1.60;;;;;;;;;;5013925;28;20445;-59
2021/01/13 01:38:20;;;;;;;2.23;1.20;;;;;;;;;;5012557;28;20018;-58
2021/01/13 01:40:47;;;;;;;4.67;1.60;;;;;;;;;;5012427;28;20026;-58
2021/01/13 01:43:14;;;;;;;4.57;1.60;;;;;;;;;;5012351;28;20064;-58
2021/01/13 01:45:40;;;;;;;4.03;1.50;;;;;;;;;;5012518;28;20030;-58
2021/01/13 01:48:22;;;;;;;3.40;1.63;;;;;;;;;;5012745;28;20060;-58
2021/01/13 01:50:49;;;;;;;4.53;2.00;;;;;;;;;;5015944;28;20021;-58
2021/01/13 01:53:23;;;;;;;5.50;2.20;;;;;;;;;;5016054;28;20045;-58
2021/01/13 01:56:11;;;;;;;5.90;2.13;;;;;;;;;;5015842;28;20026;-58
2021/01/13 01:58:38;;;;;;;4.70;1.80;;;;;;;;;;5015730;28;20068;-58
2021/01/13 02:01:06;;;;;;;5.10;1.97;;;;;;;;;;5015764;28;20030;-58
2021/01/13 02:03:41;;;;;;;4.40;2.13;;;;;;;;;;5015648;28;20045;-58
2021/01/13 02:06:09;;;;;;;4.77;2.13;;;;;;;;;;5015772;28;20022;-58
2021/01/13 02:08:39;;;;;;;4.40;1.80;;;;;;;;;;5015594;28;20495;-58
2021/01/13 02:11:07;;;;;;;3.20;1.37;;;;;;;;;;5015668;28;20033;-58
2021/01/13 02:13:35;;;;;;;6.53;1.87;;;;;;;;;;5015892;28;20036;-59
2021/01/13 02:16:02;;;;;;;6.80;1.57;;;;;;;;;;5015610;28;20026;-58
2021/01/13 02:18:30;;;;;;;3.83;1.63;;;;;;;;;;5015487;28;20029;-58
2021/01/13 02:21:02;;;;;;;3.00;1.80;;;;;;;;;;5015494;28;20041;-58
2021/01/13 02:23:33;;;;;;;4.33;1.70;;;;;;;;;;5015355;28;20509;-58
2021/01/13 02:26:12;;;;;;;2.97;1.63;;;;;;;;;;5015410;28;20472;-58
2021/01/13 02:28:42;;;;;;;4.30;2.10;;;;;;;;;;5015224;28;20034;-58
2021/01/13 02:31:24;;;;;;;3.73;1.80;;;;;;;;;;5015123;28;20034;-58
2021/01/13 02:33:52;;;;;;;7.13;3.40;;;;;;;;;;5015180;28;20112;-58
2021/01/13 02:36:20;;;;;;;4.70;2.17;;;;;;;;;;5016500;28;20077;-58
2021/01/13 02:38:53;;;;;;;7.83;2.70;;;;;;;;;;5015048;28;20420;-58
2021/01/13 02:41:27;;;;;;;5.00;2.23;;;;;;;;;;5014951;28;20388;-58
2021/01/13 02:43:55;;;;;;;5.50;1.93;;;;;;;;;;5014919;28;20123;-58
2021/01/13 02:46:40;;;;;;;4.13;2.43;;;;;;;;;;5014915;28;20034;-58
2021/01/13 02:49:09;;;;;;;7.43;3.03;;;;;;;;;;5014897;28;20488;-58
2021/01/13 02:51:37;;;;;;;4.67;2.30;;;;;;;;;;5014792;28;20037;-58
2021/01/13 02:54:12;;;;;;;5.37;2.50;;;;;;;;;;5014716;28;20054;-58
2021/01/13 02:56:42;;;;;;;5.50;2.20;;;;;;;;;;5014723;28;20022;-58
2021/01/13 02:59:10;;;;;;;5.83;2.00;;;;;;;;;;5014621;28;20113;-58
2021/01/13 03:01:50;;;;;;;7.23;2.20;;;;;;;;;;5013818;28;20113;-58
2021/01/13 03:04:17;;;;;;;4.17;2.33;;;;;;;;;;5014439;28;20057;-58
2021/01/13 03:06:44;;;;;;;7.70;2.47;;;;;;;;;;5014850;28;20377;-58
2021/01/13 03:09:12;;;;;;;6.60;2.97;;;;;;;;;;5014436;28;20030;-58
2021/01/13 03:11:39;;;;;;;7.10;3.63;;;;;;;;;;5014747;28;20029;-58
2021/01/13 03:14:35;;;;;;;9.83;4.00;;;;;;;;;;5014428;28;20092;-58
2021/01/13 03:17:04;;;;;;;7.03;2.97;;;;;;;;;;4997905;28;20034;-58
2021/01/13 03:19:42;;;;;;;7.50;3.53;;;;;;;;;;5014386;28;20041;-58
2021/01/13 03:22:14;;;;;;;9.57;4.13;;;;;;;;;;5014355;28;20108;-58
2021/01/13 03:24:50;;;;;;;11.50;4.30;;;;;;;;;;5014229;28;20105;-58
2021/01/13 03:27:18;;;;;;;13.33;6.47;;;;;;;;;;5014112;28;20041;-58
2021/01/13 03:29:49;;;;;;;5.97;3.67;;;;;;;;;;5014005;28;20048;-58
2021/01/13 03:32:38;;;;;;;8.03;3.30;;;;;;;;;;5014128;28;20052;-58
2021/01/13 03:35:13;;;;;;;7.90;3.40;;;;;;;;;;5015158;28;20034;-59
2021/01/13 03:37:59;;;;;;;5.43;3.15;;;;;;;;;;5014330;28;20045;-58
2021/01/13 03:40:28;;;;;;;14.20;5.90;;;;;;;;;;5013844;28;20085;-58
2021/01/13 03:42:56;;;;;;;11.53;4.20;;;;;;;;;;5013911;28;20400;-58
2021/01/13 03:45:32;;;;;;;7.47;3.43;;;;;;;;;;5013906;28;20025;-58
2021/01/13 03:48:08;;;;;;;10.33;3.50;;;;;;;;;;5013790;28;20548;-58
2021/01/13 03:50:37;;;;;;;15.07;4.13;;;;;;;;;;5013848;28;20021;-58
2021/01/13 03:53:08;;;;;;;11.63;4.63;;;;;;;;;;5013822;28;20117;-57
2021/01/13 03:55:38;;;;;;;8.13;4.23;;;;;;;;;;5013644;28;20037;-58
2021/01/13 03:58:20;;;;;;;8.47;4.10;;;;;;;;;;5013573;28;20377;-58
2021/01/13 04:00:47;;;;;;;7.77;3.90;;;;;;;;;;5013560;28;20163;-58
2021/01/13 04:03:23;;;;;;;11.80;5.30;;;;;;;;;;5013367;28;20041;-58
2021/01/13 04:06:10;;;;;;;10.30;4.27;;;;;;;;;;5013515;28;20033;-57
2021/01/13 04:08:45;;;;;;;8.80;3.87;;;;;;;;;;5013399;28;20532;-58
2021/01/13 04:11:12;;;;;;;8.13;4.00;;;;;;;;;;5013342;28;20025;-58
2021/01/13 04:13:43;;;;;;;6.50;3.67;;;;;;;;;;5013418;28;20034;-57
2021/01/13 04:16:11;;;;;;;8.57;4.17;;;;;;;;;;5013339;28;20058;-58
2021/01/13 04:18:38;;;;;;;11.63;5.37;;;;;;;;;;5013236;28;20026;-58
2021/01/13 04:21:05;;;;;;;6.87;3.73;;;;;;;;;;5013329;28;20088;-58
2021/01/13 04:23:32;;;;;;;8.17;4.00;;;;;;;;;;5013256;28;20425;-58
2021/01/13 04:26:00;;;;;;;7.87;3.77;;;;;;;;;;5013220;28;20049;-58
2021/01/13 04:28:27;;;;;;;9.43;4.17;;;;;;;;;;5013144;28;20116;-58
2021/01/13 04:30:55;;;;;;;8.50;4.00;;;;;;;;;;5013167;28;20098;-58
2021/01/13 04:33:22;;;;;;;9.20;4.03;;;;;;;;;;5013171;28;20036;-57
2021/01/13 04:35:50;;;;;;;8.70;3.53;;;;;;;;;;5014388;28;20053;-58
2021/01/13 04:38:24;;;;;;;11.00;3.40;;;;;;;;;;5013079;28;20034;-58
2021/01/13 04:41:09;;;;;;;6.30;3.53;;;;;;;;;;5013311;28;20113;-58
2021/01/13 04:43:54;;;;;;;9.38;3.50;;;;;;;;;;5013007;28;20045;-58
2021/01/13 04:46:29;;;;;;;7.07;3.45;;;;;;;;;;5013121;28;20018;-58
2021/01/13 04:49:06;;;;;;;6.88;3.33;;;;;;;;;;5012951;28;20049;-58
2021/01/13 04:51:43;;;;;;;8.80;3.27;;;;;;;;;;5013074;28;20036;-58
2021/01/13 04:54:11;;;;;;;6.47;2.50;;;;;;;;;;5012949;28;20292;-58
2021/01/13 04:56:43;;;;;;;8.07;4.30;;;;;;;;;;5012962;28;20037;-58
2021/01/13 04:59:10;;;;;;;7.80;2.40;;;;;;;;;;5012839;28;20109;-58
2021/01/13 05:01:55;;;;;;;4.13;2.20;;;;;;;;;;5012935;28;20087;-57
2021/01/13 05:04:28;;;;;;;7.35;2.00;;;;;;;;;;5012810;28;20052;-58
2021/01/13 05:07:06;;;;;;;6.87;2.30;;;;;;;;;;5012891;28;20026;-58
2021/01/13 05:09:42;;;;;;;5.17;2.53;;;;;;;;;;5012748;28;20392;-58
2021/01/13 05:12:09;;;;;;;6.13;2.60;;;;;;;;;;5013101;28;20037;-57
2021/01/13 05:14:43;;;;;;;6.23;3.03;;;;;;;;;;5012809;28;20033;-58
2021/01/13 05:17:21;;;;;;;6.90;3.30;;;;;;;;;;5012679;28;20437;-58
2021/01/13 05:19:56;;;;;;;6.20;3.37;;;;;;;;;;5012716;28;20362;-57
2021/01/13 05:22:26;;;;;;;5.87;2.90;;;;;;;;;;5012703;28;20477;-57
2021/01/13 05:24:53;;;;;;;5.13;2.57;;;;;;;;;;5015097;28;20058;-57
2021/01/13 05:27:43;;;;;;;6.47;2.77;;;;;;;;;;5016435;28;20053;-56
2021/01/13 05:30:10;;;;;;;4.73;2.27;;;;;;;;;;4979749;28;20497;-57
2021/01/13 05:32:40;;;;;;;6.13;2.57;;;;;;;;;;5016336;28;20263;-57
2021/01/13 05:35:08;;;;;;;10.47;2.23;;;;;;;;;;5016322;28;20257;-57
2021/01/13 05:37:37;;;;;;;5.80;2.37;;;;;;;;;;5015831;28;20279;-57
2021/01/13 05:40:04;;;;;;;6.00;2.23;;;;;;;;;;5016038;28;20034;-57
2021/01/13 05:42:31;;;;;;;3.53;1.47;;;;;;;;;;5016012;28;20018;-57
2021/01/13 05:44:58;;;;;;;3.50;1.90;;;;;;;;;;5016263;28;20619;-57
2021/01/13 05:47:54;;;;;;;6.17;2.13;;;;;;;;;;5016158;28;20339;-57
2021/01/13 05:50:23;;;;;;;3.40;1.93;;;;;;;;;;5014828;28;20267;-57
2021/01/13 05:52:56;;;;;;;4.50;2.00;;;;;;;;;;5015957;28;20699;-57
2021/01/13 05:55:24;;;;;;;4.37;2.07;;;;;;;;;;5015991;28;20283;-57
2021/01/13 05:57:58;;;;;;;4.87;2.20;;;;;;;;;;5015785;28;20279;-57
2021/01/13 06:00:26;;;;;;;8.65;2.28;;;;;;;;;;5015828;28;20256;-57
2021/01/13 06:03:03;;;;;;;7.67;2.47;;;;;;;;;;5015688;28;20057;-57
2021/01/13 06:05:32;;;;;;;3.57;2.00;;;;;;;;;;5015772;28;20260;-57
2021/01/13 06:07:59;;;;;;;6.37;2.47;;;;;;;;;;5015595;28;20243;-57
2021/01/13 06:10:28;;;;;;;6.03;2.50;;;;;;;;;;5015719;28;20553;-57
2021/01/13 06:12:58;;;;;;;4.93;1.97;;;;;;;;;;5015520;28;20301;-57
2021/01/13 06:15:25;;;;;;;7.00;2.13;;;;;;;;;;5015774;28;20291;-57
2021/01/13 06:17:56;;;;;;;4.37;2.53;;;;;;;;;;5015438;28;20256;-57
2021/01/13 06:20:26;;;;;;;5.47;1.87;;;;;;;;;;5015456;28;20263;-57
2021/01/13 06:22:53;;;;;;;3.30;1.80;;;;;;;;;;5015383;28;20271;-57
2021/01/13 06:25:23;;;;;;;3.83;2.13;;;;;;;;;;5015400;28;20256;-57
2021/01/13 06:27:59;;;;;;;3.50;1.83;;;;;;;;;;5015267;28;20603;-57
2021/01/13 06:30:30;;;;;;;5.17;1.80;;;;;;;;;;5015229;28;20603;-57
2021/01/13 06:33:04;;;;;;;4.00;2.07;;;;;;;;;;5015167;28;20255;-57
2021/01/13 06:35:37;;;;;;;4.63;2.08;;;;;;;;;;5015358;28;20255;-57
2021/01/13 06:38:07;;;;;;;5.20;1.60;;;;;;;;;;5015138;28;20528;-57
2021/01/13 06:40:34;;;;;;;4.13;1.77;;;;;;;;;;5015040;28;20271;-57
2021/01/13 06:43:14;;;;;;;4.47;1.80;;;;;;;;;;5014934;28;20283;-57
2021/01/13 06:45:42;;;;;;;3.83;2.20;;;;;;;;;;5015111;28;20599;-57
2021/01/13 06:48:09;;;;;;;5.67;2.00;;;;;;;;;;5015088;28;20343;-57
2021/01/13 06:50:42;;;;;;;3.63;1.77;;;;;;;;;;5014978;28;20270;-57
2021/01/13 06:53:10;;;;;;;7.67;1.77;;;;;;;;;;5014898;28;20286;-57
2021/01/13 06:55:37;;;;;;;5.23;1.80;;;;;;;;;;5014836;28;20731;-57
2021/01/13 06:58:17;;;;;;;3.87;1.93;;;;;;;;;;5014701;28;20266;-57
2021/01/13 07:00:44;;;;;;;2.80;1.60;;;;;;;;;;5014821;28;20259;-57
2021/01/13 07:03:30;;;;;;;3.23;1.83;;;;;;;;;;5014555;28;20287;-57
2021/01/13 07:06:00;;;;;;;2.93;1.60;;;;;;;;;;5014676;28;20267;-56
2021/01/13 07:08:27;;;;;;;3.50;1.60;;;;;;;;;;5014505;28;20256;-57
2021/01/13 07:11:12;;;;;;;3.00;1.50;;;;;;;;;;5014564;28;20286;-57
2021/01/13 07:13:40;;;;;;;3.37;1.70;;;;;;;;;;5014448;28;20658;-57
2021/01/13 07:16:08;;;;;;;3.63;1.40;;;;;;;;;;5014367;28;20255;-57
2021/01/13 07:18:35;;;;;;;3.97;1.80;;;;;;;;;;5014242;28;20306;-57
2021/01/13 07:21:08;;;;;;;4.37;1.73;;;;;;;;;;5014400;28;20276;-57
2021/01/13 07:23:36;;;;;;;4.43;1.73;;;;;;;;;;5014213;28;20294;-57
2021/01/13 07:26:03;;;;;;;3.20;1.80;;;;;;;;;;5014270;28;20296;-57
2021/01/13 07:28:31;;;;;;;3.27;1.80;;;;;;;;;;5014099;28;20800;-57
2021/01/13 07:30:59;;;;;;;2.90;1.53;;;;;;;;;;5014068;28;20258;-56
2021/01/13 07:33:30;;;;;;;8.17;1.63;;;;;;;;;;5014186;28;20266;-56
2021/01/13 07:35:59;;;;;;;2.73;1.40;;;;;;;;;;5015302;28;20279;-56
2021/01/13 07:38:29;;;;;;;4.40;1.60;;;;;;;;;;5014066;28;20262;-57
2021/01/13 07:40:58;;;;;;;2.93;1.67;;;;;;;;;;5013973;28;20738;-56
2021/01/13 07:43:34;;;;;;;4.53;2.30;;;;;;;;;;5013845;28;20295;-57
2021/01/13 07:46:04;;;;;;;6.97;1.53;;;;;;;;;;5013893;28;20259;-57
2021/01/13 07:48:32;;;;;;;3.30;1.70;;;;;;;;;;5013620;28;20330;-57
2021/01/13 07:51:09;;;;;;;3.63;1.63;;;;;;;;;;5013773;28;20247;-57
2021/01/13 07:53:39;;;;;;;3.40;1.60;;;;;;;;;;5013760;28;20267;-56
2021/01/13 07:56:10;;;;;;;3.33;1.73;;;;;;;;;;5013720;28;20248;-56
2021/01/13 07:58:37;;;;;;;4.40;1.90;;;;;;;;;;5013755;28;20251;-56
2021/01/13 08:01:22;;;;;;;2.77;1.83;;;;;;;;;;5013661;28;20259;-57
2021/01/13 08:04:07;;;;;;;2.78;1.23;;;;;;;;;;5013610;28;20286;-57
2021/01/13 08:06:35;;;;;;;3.45;1.55;;;;;;;;;;5013899;28;20041;-56
2021/01/13 08:09:09;;;;;;;2.80;1.47;;;;;;;;;;5013519;28;20050;-57
2021/01/13 08:11:42;;;;;;;4.13;1.60;;;;;;;;;;5013521;28;20260;-57
2021/01/13 08:14:21;;;;;;;3.67;2.10;;;;;;;;;;5013382;28;20026;-57
2021/01/13 08:17:03;;;;;;;3.57;1.80;;;;;;;;;;5013469;28;20255;-57
2021/01/13 08:19:31;;;;;;;2.70;1.53;;;;;;;;;;5013525;28;20279;-57
2021/01/13 08:22:04;;;;;;;3.03;1.50;;;;;;;;;;5013304;28;20247;-56
2021/01/13 08:24:33;;;;;;;3.17;1.60;;;;;;;;;;5013422;28;20283;-57
2021/01/13 08:27:03;;;;;;;4.33;1.83;;;;;;;;;;5013161;28;20279;-57
2021/01/13 08:29:34;;;;;;;4.47;1.67;;;;;;;;;;5012992;28;20252;-57
2021/01/13 08:32:05;;;;;;;3.47;1.90;;;;;;;;;;5013173;28;20390;-57
2021/01/13 08:34:39;;;;;;;5.33;1.60;;;;;;;;;;5013219;28;20259;-57
2021/01/13 08:37:07;;;;;;;3.63;1.95;;;;;;;;;;5014459;28;20287;-56
2021/01/13 08:39:34;;;;;;;2.60;1.50;;;;;;;;;;5013054;28;20030;-57
2021/01/13 08:42:20;;;;;;;4.10;1.87;;;;;;;;;;5012990;28;20270;-57
2021/01/13 08:44:47;;;;;;;3.90;1.40;;;;;;;;;;5013016;28;20337;-56
2021/01/13 08:47:14;;;;;;;3.70;2.07;;;;;;;;;;5013340;28;20248;-56
2021/01/13 08:49:41;;;;;;;3.47;1.50;;;;;;;;;;5012927;28;20661;-57
2021/01/13 08:52:08;;;;;;;2.80;1.43;;;;;;;;;;5013306;28;20300;-57
2021/01/13 08:54:35;;;;;;;2.80;1.50;;;;;;;;;;5013304;28;20267;-56
2021/01/13 08:57:03;;;;;;;4.20;1.93;;;;;;;;;;5012926;28;20278;-57
2021/01/13 08:59:36;;;;;;;5.00;1.70;;;;;;;;;;5014895;28;20255;-57
2021/01/13 09:02:05;;;;;;;5.10;1.80;;;;;;;;;;5016923;28;20261;-57
2021/01/13 09:04:44;;;;;;;2.97;1.40;;;;;;;;;;5016803;28;20283;-57
2021/01/13 09:07:13;;;;;;;4.67;1.43;;;;;;;;;;5016874;28;20251;-57
2021/01/13 09:09:43;;;;;;;3.93;1.70;;;;;;;;;;5016801;28;20734;-57
2021/01/13 09:12:28;;;;;;;4.37;2.30;;;;;;;;;;5016739;28;20305;-57
2021/01/13 09:15:07;;;;;;;2.53;1.58;;;;;;;;;;5016758;28;20252;-57
2021/01/13 09:17:37;;;;;;;5.50;1.80;;;;;;;;;;5016603;28;20389;-57
2021/01/13 09:20:05;;;;;;;3.27;1.80;;;;;;;;;;5016694;28;20247;-57
2021/01/13 09:22:51;;;;;;;4.00;1.80;;;;;;;;;;5016487;28;20330;-56
2021/01/13 09:25:20;;;;;;;4.90;1.60;;;;;;;;;;5016762;28;20278;-57
2021/01/13 09:27:48;;;;;;;2.43;1.40;;;;;;;;;;5016366;28;20255;-57
2021/01/13 09:30:37;;;;;;;4.67;1.97;;;;;;;;;;5016332;28;20310;-57
2021/01/13 09:33:05;;;;;;;3.80;1.80;;;;;;;;;;5016392;28;20251;-56
2021/01/13 09:35:36;;;;;;;2.80;1.53;;;;;;;;;;5016397;28;20255;-56
2021/01/13 09:38:08;;;;;;;3.13;1.63;;;;;;;;;;5016600;28;20319;-56
2021/01/13 09:40:53;;;;;;;3.13;1.50;;;;;;;;;;5016167;28;20260;-57
2021/01/13 09:43:28;;;;;;;2.92;1.90;;;;;;;;;;5016120;28;20290;-57
2021/01/13 09:45:56;;;;;;;5.23;2.10;;;;;;;;;;5016264;28;20102;-57
2021/01/13 09:48:24;;;;;;;7.27;3.40;;;;;;;;;;5016002;28;20261;-57
2021/01/13 09:51:07;;;;;;;3.60;1.80;;;;;;;;;;5015980;28;20298;-57
2021/01/13 09:53:35;;;;;;;3.20;1.57;;;;;;;;;;5015986;28;20331;-57
2021/01/13 09:56:05;;;;;;;5.40;1.80;;;;;;;;;;5015942;28;20255;-57
2021/01/13 09:58:39;;;;;;;2.50;1.50;;;;;;;;;;5015880;28;20259;-57
2021/01/13 10:01:12;;;;;;;4.07;1.95;;;;;;;;;;5015909;28;20305;-57
2021/01/13 10:03:40;;;;;;;5.00;1.97;;;;;;;;;;5015734;28;20033;-57
2021/01/13 10:06:27;;;;;;;2.33;1.43;;;;;;;;;;5016037;28;20255;-57
2021/01/13 10:08:55;;;;;;;3.50;1.63;;;;;;;;;;5015719;28;20258;-57
2021/01/13 10:11:24;;;;;;;6.33;2.10;;;;;;;;;;5015524;28;20263;-56
2021/01/13 10:14:00;;;;;;;4.03;2.10;;;;;;;;;;5015673;28;20648;-57
2021/01/13 10:16:28;;;;;;;3.57;1.60;;;;;;;;;;5015674;28;20261;-56
2021/01/13 10:18:54;;;;;;;3.13;1.60;;;;;;;;;;5015467;28;20298;-57
2021/01/13 10:21:21;;;;;;;3.33;1.97;;;;;;;;;;5015700;28;20262;-57
2021/01/13 10:23:50;;;;;;;5.57;2.60;;;;;;;;;;5015325;28;20287;-57
2021/01/13 10:26:17;;;;;;;3.70;1.77;;;;;;;;;;5014261;28;20252;-57
2021/01/13 10:28:44;;;;;;;2.80;1.40;;;;;;;;;;5015562;28;20255;-57
2021/01/13 10:31:12;;;;;;;4.03;1.87;;;;;;;;;;5015126;28;20255;-56
2021/01/13 10:33:47;;;;;;;4.17;1.73;;;;;;;;;;5015230;28;20310;-57
2021/01/13 10:36:13;;;;;;;;;;;;;;;;;;5016800;28;20283;-57
2021/01/13 10:38:40;;;;;;;3.03;1.50;;;;;;;;;;5015103;28;19968;-57
2021/01/13 10:41:07;;;;;;;5.00;1.30;;;;;;;;;;5014963;28;20256;-57
2021/01/13 10:43:34;;;;;;;3.30;1.70;;;;;;;;;;5015075;28;20323;-56
2021/01/13 10:46:02;;;;;;;3.10;1.80;;;;;;;;;;5015070;28;20247;-57
2021/01/13 10:48:28;;;;;;;3.03;1.50;;;;;;;;;;5014952;28;20267;-57
2021/01/13 10:51:00;;;;;;;3.13;1.93;;;;;;;;;;5014944;28;20251;-57
2021/01/13 10:53:30;;;;;;;4.33;2.10;;;;;;;;;;5014832;28;20342;-57
2021/01/13 10:56:00;;;;;;;3.63;2.10;;;;;;;;;;5014838;28;20837;-56
2021/01/13 10:58:28;;;;;;;2.63;1.40;;;;;;;;;;5014833;28;20267;-57
2021/01/13 11:01:06;;;;;;;4.37;2.10;;;;;;;;;;5014731;28;20622;-57
2021/01/13 11:03:34;;;;;;;2.73;1.60;;;;;;;;;;5014635;28;20298;-56
2021/01/13 11:06:01;;;;;;;3.43;1.70;;;;;;;;;;5014628;28;20537;-57
2021/01/13 11:08:31;;;;;;;3.27;1.70;;;;;;;;;;5014602;28;20259;-57
2021/01/13 11:11:08;;;;;;;5.17;1.90;;;;;;;;;;5014590;28;20247;-57
2021/01/13 11:13:45;;;;;;;3.93;1.80;;;;;;;;;;5014586;28;20313;-56
2021/01/13 11:16:12;;;;;;;3.53;1.80;;;;;;;;;;5014457;28;20263;-56
2021/01/13 11:18:39;;;;;;;3.80;1.90;;;;;;;;;;5014331;28;20618;-57
2021/01/13 11:21:08;;;;;;;4.43;2.23;;;;;;;;;;5013991;28;20256;-57
2021/01/13 11:23:45;;;;;;;2.97;1.57;;;;;;;;;;5014048;28;20847;-56
2021/01/13 11:26:15;;;;;;;6.13;2.03;;;;;;;;;;5014276;28;20252;-57
2021/01/13 11:28:44;;;;;;;3.77;1.50;;;;;;;;;;5014084;28;20329;-57
2021/01/13 11:31:12;;;;;;;4.10;2.27;;;;;;;;;;5014089;28;20255;-56
2021/01/13 11:33:45;;;;;;;4.63;2.27;;;;;;;;;;5014214;28;20366;-56
2021/01/13 11:36:12;;;;;;;4.77;2.27;;;;;;;;;;5015367;28;20266;-57
2021/01/13 11:38:59;;;;;;;3.47;1.80;;;;;;;;;;5013987;28;20251;-56
2021/01/13 11:41:32;;;;;;;4.27;1.70;;;;;;;;;;5013981;28;20263;-56
2021/01/13 11:44:08;;;;;;;3.17;1.87;;;;;;;;;;5013767;28;20283;-56
2021/01/13 11:46:38;;;;;;;4.87;1.90;;;;;;;;;;5013910;28;20247;-57
2021/01/13 11:49:23;;;;;;;3.43;1.87;;;;;;;;;;5013793;28;20739;-57
2021/01/13 11:51:54;;;;;;;6.50;1.83;;;;;;;;;;5013921;28;20243;-57
2021/01/13 11:54:24;;;;;;;3.60;1.77;;;;;;;;;;5013838;28;20081;-57
2021/01/13 11:56:51;;;;;;;3.60;1.87;;;;;;;;;;5013788;28;20318;-57
2021/01/13 11:59:25;;;;;;;3.93;1.70;;;;;;;;;;5013631;28;20766;-56
2021/01/13 12:01:52;;;;;;;4.17;1.83;;;;;;;;;;5013674;28;20738;-57
2021/01/13 12:04:19;;;;;;;3.27;1.70;;;;;;;;;;5013526;28;20317;-56
2021/01/13 12:06:58;;;;;;;3.37;1.60;;;;;;;;;;5013588;28;20258;-57
2021/01/13 12:09:26;;;;;;;3.57;1.83;;;;;;;;;;5013458;28;20379;-56
2021/01/13 12:11:53;;;;;;;2.33;1.20;;;;;;;;;;5013504;28;20256;-56
2021/01/13 12:14:20;;;;;;;3.17;1.50;;;;;;;;;;5013617;28;20255;-57
2021/01/13 12:16:47;;;;;;;3.00;1.43;;;;;;;;;;5013670;28;20302;-57
2021/01/13 12:19:13;;;;;;;3.17;1.53;;;;;;;;;;5013266;28;20251;-57
2021/01/13 12:21:44;;;;;;;2.97;1.60;;;;;;;;;;5013288;28;20286;-57
2021/01/13 12:24:23;;;;;;;2.83;1.60;;;;;;;;;;5013198;28;20299;-56
2021/01/13 12:26:50;;;;;;;3.37;1.93;;;;;;;;;;5013396;28;20293;-56
2021/01/13 12:29:21;;;;;;;2.50;1.40;;;;;;;;;;5013078;28;20259;-56
2021/01/13 12:31:49;;;;;;;3.20;1.60;;;;;;;;;;5013258;28;20268;-57
2021/01/13 12:34:25;;;;;;;2.30;1.20;;;;;;;;;;5012610;28;20267;-56
2021/01/13 12:36:52;;;;;;;2.63;1.40;;;;;;;;;;5014369;28;20322;-56
2021/01/13 12:39:23;;;;;;;5.80;1.73;;;;;;;;;;5013193;28;20340;-56
2021/01/13 12:41:51;;;;;;;2.67;1.57;;;;;;;;;;5013315;28;20275;-57
2021/01/13 12:44:21;;;;;;;3.03;1.53;;;;;;;;;;5013286;28;20374;-56
2021/01/13 12:46:49;;;;;;;3.30;1.50;;;;;;;;;;5013083;28;20330;-56
2021/01/13 12:49:16;;;;;;;4.17;1.97;;;;;;;;;;5012917;28;20255;-57
2021/01/13 12:51:43;;;;;;;3.67;1.70;;;;;;;;;;5012985;28;20247;-57
2021/01/13 12:54:10;;;;;;;4.50;1.93;;;;;;;;;;5012887;28;20265;-56
2021/01/13 12:56:37;;;;;;;6.07;1.83;;;;;;;;;;5012947;28;20243;-56
2021/01/13 12:59:04;;;;;;;3.33;1.90;;;;;;;;;;5012971;28;20290;-56
2021/01/13 13:01:37;;;;;;;3.40;1.60;;;;;;;;;;5013512;28;20309;-57
2021/01/13 13:04:04;;;;;;;3.77;1.67;;;;;;;;;;5012837;28;20283;-56
2021/01/13 13:06:35;;;;;;;6.17;1.70;;;;;;;;;;5012832;28;20278;-56
2021/01/13 13:09:03;;;;;;;3.97;1.70;;;;;;;;;;5012872;28;20262;-57
2021/01/13 13:11:30;;;;;;;6.50;1.27;;;;;;;;;;5012848;28;20642;-57
2021/01/13 13:13:57;;;;;;;2.93;1.60;;;;;;;;;;5012892;28;20259;-57
2021/01/13 13:16:24;;;;;;;3.13;1.83;;;;;;;;;;5013058;28;20273;-57
2021/01/13 13:18:54;;;;;;;2.57;1.50;;;;;;;;;;5012677;28;20643;-56
2021/01/13 13:21:22;;;;;;;2.43;1.43;;;;;;;;;;5012721;28;20650;-57
2021/01/13 13:23:49;;;;;;;3.97;1.50;;;;;;;;;;5012591;28;20390;-56
2021/01/13 13:26:16;;;;;;;3.13;1.67;;;;;;;;;;5012621;28;20643;-56
2021/01/13 13:28:43;;;;;;;3.47;1.50;;;;;;;;;;5012617;28;20278;-56
2021/01/13 13:31:13;;;;;;;7.67;1.33;;;;;;;;;;5012591;28;20290;-57
2021/01/13 13:33:40;;;;;;;6.63;1.50;;;;;;;;;;5012636;28;20271;-56
2021/01/13 13:36:08;;;;;;;4.67;1.43;;;;;;;;;;5013467;28;20270;-57
2021/01/13 13:38:35;;;;;;;2.80;1.27;;;;;;;;;;5012437;28;20287;-56
2021/01/13 13:41:16;;;;;;;3.47;1.63;;;;;;;;;;5012601;28;20342;-56
2021/01/13 13:43:43;;;;;;;3.73;1.37;;;;;;;;;;5012323;28;20295;-56
2021/01/13 13:46:10;;;;;;;8.97;2.47;;;;;;;;;;5015246;28;20248;-56
2021/01/13 13:48:37;;;;;;;5.43;1.83;;;;;;;;;;5015969;28;20310;-57
2021/01/13 13:51:04;;;;;;;13.40;2.30;;;;;;;;;;5016028;28;20654;-56
2021/01/13 13:53:31;;;;;;;6.63;2.13;;;;;;;;;;5015970;28;20279;-57
2021/01/13 13:55:58;;;;;;;5.37;2.60;;;;;;;;;;5015983;28;20327;-57
2021/01/13 13:58:30;;;;;;;8.53;2.40;;;;;;;;;;5015879;28;20251;-57
2021/01/13 14:00:57;;;;;;;3.87;2.13;;;;;;;;;;5015873;28;20298;-56
2021/01/13 14:03:24;;;;;;;3.10;1.53;;;;;;;;;;5015734;28;20405;-57
2021/01/13 14:05:51;;;;;;;4.30;2.20;;;;;;;;;;5015847;28;20251;-56
2021/01/13 14:08:18;;;;;;;3.57;2.13;;;;;;;;;;5015668;28;20263;-56
2021/01/13 14:10:45;;;;;;;3.27;2.03;;;;;;;;;;5015652;28;20257;-56
2021/01/13 14:13:12;;;;;;;3.90;2.00;;;;;;;;;;5015594;28;20255;-57
2021/01/13 14:15:39;;;;;;;4.23;1.67;;;;;;;;;;5015637;28;20260;-57
2021/01/13 14:18:06;;;;;;;2.70;1.90;;;;;;;;;;5015440;28;20643;-57
2021/01/13 14:20:35;;;;;;;4.80;1.80;;;;;;;;;;5015437;28;20262;-57
2021/01/13 14:23:03;;;;;;;3.80;1.87;;;;;;;;;;5015374;28;20622;-57
2021/01/13 14:25:30;;;;;;;3.33;1.90;;;;;;;;;;5015463;28;20295;-57
2021/01/13 14:27:56;;;;;;;4.00;2.40;;;;;;;;;;5015316;28;20649;-57
2021/01/13 14:30:23;;;;;;;5.77;2.70;;;;;;;;;;5015374;28;20263;-57
2021/01/13 14:32:52;;;;;;;11.83;3.93;;;;;;;;;;5015276;28;20603;-57
2021/01/13 14:35:19;;;;;;;6.57;3.73;;;;;;;;;;5015196;28;20260;-57
2021/01/13 14:37:48;;;;;;;7.60;4.00;;;;;;;;;;5016766;28;20295;-57
2021/01/13 14:40:16;;;;;;;7.47;3.53;;;;;;;;;;5015435;28;20255;-57
2021/01/13 14:42:43;;;;;;;6.43;3.23;;;;;;;;;;5014919;28;20610;-57
2021/01/13 14:45:10;;;;;;;6.53;3.87;;;;;;;;;;5014991;28;20649;-57
2021/01/13 14:47:36;;;;;;;6.60;3.37;;;;;;;;;;5014940;28;20330;-57
2021/01/13 14:50:06;;;;;;;8.17;3.93;;;;;;;;;;5014919;28;20095;-57
2021/01/13 14:52:33;;;;;;;7.50;3.83;;;;;;;;;;5014834;28;20018;-57
2021/01/13 14:55:00;;;;;;;5.97;3.03;;;;;;;;;;5014771;28;20028;-57
2021/01/13 14:57:26;;;;;;;9.40;3.13;;;;;;;;;;5013720;28;20037;-57
2021/01/13 14:59:53;;;;;;;5.87;3.60;;;;;;;;;;5014795;28;20026;-57
2021/01/13 15:02:20;;;;;;;7.53;3.70;;;;;;;;;;5014669;28;20487;-57
2021/01/13 15:04:49;;;;;;;6.63;3.50;;;;;;;;;;5014608;28;20084;-57